Time;durP1;ratioP1;P1;durP2;ratioP2;P2;SDS_P1;SDS_P2;PMS_P1;PMS_P2;Temp;Humidity;BMP_temperature;BMP_pressure;BME280_temperature;BME280_humidity;BME280_pressure;Samples;Min_cycle;Max_cycle;Signal;HPM_P1;HPM_P2
2022/02/17 00:00:13;;;;;;;7.70;3.35;;;;;;;;;;5092411;28;20028;-62
2022/02/17 00:02:40;;;;;;;8.25;3.47;;;;;;;;;;5092183;28;20706;-61
2022/02/17 00:05:06;;;;;;;6.60;3.47;;;;;;;;;;5092345;28;20031;-61
2022/02/17 00:07:32;;;;;;;6.25;3.42;;;;;;;;;;5092315;28;20020;-62
2022/02/17 00:09:58;;;;;;;31.38;3.58;;;;;;;;;;5091885;28;20020;-62
2022/02/17 00:12:24;;;;;;;7.90;3.85;;;;;;;;;;5091793;28;20025;-62
2022/02/17 00:14:51;;;;;;;16.48;4.03;;;;;;;;;;5092224;28;20048;-62
2022/02/17 00:17:17;;;;;;;8.02;3.47;;;;;;;;;;5092027;28;20115;-63
2022/02/17 00:19:43;;;;;;;7.93;3.05;;;;;;;;;;5092091;28;20399;-63
2022/02/17 00:22:09;;;;;;;7.93;3.60;;;;;;;;;;5091795;28;20008;-62
2022/02/17 00:24:35;;;;;;;7.40;3.58;;;;;;;;;;5092021;28;20494;-62
2022/02/17 00:27:02;;;;;;;7.78;3.75;;;;;;;;;;5091813;28;20051;-61
2022/02/17 00:29:28;;;;;;;5.97;3.42;;;;;;;;;;5073683;28;20047;-60
2022/02/17 00:31:54;;;;;;;8.45;3.50;;;;;;;;;;5091306;28;20024;-62
2022/02/17 00:34:20;;;;;;;7.53;3.53;;;;;;;;;;5091090;28;20459;-63
2022/02/17 00:36:46;;;;;;;5.53;3.28;;;;;;;;;;5092019;28;20110;-60
2022/02/17 00:39:12;;;;;;;6.00;3.35;;;;;;;;;;5091821;28;20039;-63
2022/02/17 00:41:38;;;;;;;5.20;3.40;;;;;;;;;;5091864;28;20024;-60
2022/02/17 00:44:05;;;;;;;6.13;3.50;;;;;;;;;;5091850;28;20486;-62
2022/02/17 00:46:31;;;;;;;5.78;3.38;;;;;;;;;;5091954;28;20024;-62
2022/02/17 00:48:58;;;;;;;5.53;2.90;;;;;;;;;;5091521;28;20515;-62
2022/02/17 00:51:24;;;;;;;6.00;3.60;;;;;;;;;;5091593;28;20064;-62
2022/02/17 00:53:50;;;;;;;5.20;2.83;;;;;;;;;;5091506;28;20089;-64
2022/02/17 00:56:16;;;;;;;11.75;3.20;;;;;;;;;;5091593;28;20028;-60
2022/02/17 00:58:43;;;;;;;5.78;3.38;;;;;;;;;;5091559;28;20040;-63
2022/02/17 01:01:09;;;;;;;6.05;3.38;;;;;;;;;;5091738;28;20495;-62
2022/02/17 01:03:35;;;;;;;5.80;2.95;;;;;;;;;;5091654;28;20051;-62
2022/02/17 01:06:01;;;;;;;6.20;3.22;;;;;;;;;;5091557;28;20030;-61
2022/02/17 01:08:27;;;;;;;6.47;2.90;;;;;;;;;;5077701;28;20373;-60
2022/02/17 01:10:53;;;;;;;9.07;2.80;;;;;;;;;;5071502;28;20099;-63
2022/02/17 01:13:22;;;;;;;11.43;3.13;;;;;;;;;;5071428;28;20095;-63
2022/02/17 01:15:48;;;;;;;20.38;3.50;;;;;;;;;;5072778;28;20427;-61
2022/02/17 01:18:15;;;;;;;9.95;2.92;;;;;;;;;;5080188;28;20089;-58
2022/02/17 01:20:41;;;;;;;6.10;3.00;;;;;;;;;;5070888;28;20017;-61
2022/02/17 01:23:08;;;;;;;6.18;3.35;;;;;;;;;;5088242;28;20024;-57
2022/02/17 01:25:34;;;;;;;10.48;3.08;;;;;;;;;;5081910;28;20067;-61
2022/02/17 01:28:00;;;;;;;5.53;2.90;;;;;;;;;;5071535;28;20021;-62
2022/02/17 01:30:26;;;;;;;7.75;3.28;;;;;;;;;;5071690;28;20052;-59
2022/02/17 01:32:53;;;;;;;4.75;2.67;;;;;;;;;;5071445;28;20491;-62
2022/02/17 01:35:19;;;;;;;5.82;2.95;;;;;;;;;;5071801;28;20032;-61
2022/02/17 01:37:46;;;;;;;6.30;2.30;;;;;;;;;;5071294;28;20082;-61
2022/02/17 01:40:13;;;;;;;7.13;2.92;;;;;;;;;;5071250;28;20135;-60
2022/02/17 01:42:39;;;;;;;5.15;2.47;;;;;;;;;;5071276;28;20039;-62
2022/02/17 01:45:06;;;;;;;8.52;2.90;;;;;;;;;;5073977;28;20031;-62
2022/02/17 01:47:32;;;;;;;5.60;2.92;;;;;;;;;;5074907;28;20025;-62
2022/02/17 01:49:58;;;;;;;4.50;2.60;;;;;;;;;;5074947;28;20045;-62
2022/02/17 01:52:24;;;;;;;5.63;3.22;;;;;;;;;;5074788;28;20472;-61
2022/02/17 01:54:51;;;;;;;7.10;3.08;;;;;;;;;;5074763;28;20103;-62
2022/02/17 01:57:19;;;;;;;5.72;2.95;;;;;;;;;;5074870;28;20050;-63
2022/02/17 01:59:46;;;;;;;6.35;2.90;;;;;;;;;;5074910;28;20024;-62
2022/02/17 02:02:12;;;;;;;4.70;2.70;;;;;;;;;;5074523;28;20040;-62
2022/02/17 02:04:38;;;;;;;5.75;3.15;;;;;;;;;;5074298;28;20380;-62
2022/02/17 02:07:07;;;;;;;7.20;2.90;;;;;;;;;;5074407;28;20070;-64
2022/02/17 02:09:34;;;;;;;4.95;2.50;;;;;;;;;;5092531;28;20028;-63
2022/02/17 02:12:00;;;;;;;5.22;2.75;;;;;;;;;;5094879;28;20020;-62
2022/02/17 02:14:26;;;;;;;8.15;3.00;;;;;;;;;;5094669;28;20028;-61
2022/02/17 02:16:53;;;;;;;8.55;3.03;;;;;;;;;;5094588;28;20028;-63
2022/02/17 02:19:20;;;;;;;5.32;2.67;;;;;;;;;;5094545;28;20032;-63
2022/02/17 02:21:46;;;;;;;6.78;2.95;;;;;;;;;;5094350;28;20375;-63
2022/02/17 02:24:12;;;;;;;6.70;3.20;;;;;;;;;;5094365;28;20053;-63
2022/02/17 02:26:38;;;;;;;7.03;2.63;;;;;;;;;;5094135;28;20020;-63
2022/02/17 02:29:04;;;;;;;6.60;2.60;;;;;;;;;;5093723;28;20024;-62
2022/02/17 02:31:30;;;;;;;7.20;2.67;;;;;;;;;;5093950;28;20474;-62
2022/02/17 02:33:56;;;;;;;5.93;2.50;;;;;;;;;;5094253;28;20039;-62
2022/02/17 02:36:22;;;;;;;6.50;3.05;;;;;;;;;;5094299;28;20028;-60
2022/02/17 02:38:49;;;;;;;5.50;3.13;;;;;;;;;;5094077;28;20032;-62
2022/02/17 02:41:15;;;;;;;5.38;2.67;;;;;;;;;;5094096;28;20032;-61
2022/02/17 02:43:41;;;;;;;6.20;2.50;;;;;;;;;;5093962;28;20479;-64
2022/02/17 02:46:07;;;;;;;4.47;1.98;;;;;;;;;;5093622;28;20052;-64
2022/02/17 02:48:33;;;;;;;4.32;2.10;;;;;;;;;;5093446;28;20457;-60
2022/02/17 02:50:59;;;;;;;5.40;2.70;;;;;;;;;;5093302;28;20020;-63
2022/02/17 02:53:25;;;;;;;3.80;1.70;;;;;;;;;;5093250;28;20024;-63
2022/02/17 02:55:52;;;;;;;5.43;2.55;;;;;;;;;;5092645;28;20046;-63
2022/02/17 02:58:19;;;;;;;5.43;2.10;;;;;;;;;;5093173;28;20043;-63
2022/02/17 03:00:46;;;;;;;4.80;2.38;;;;;;;;;;5093443;28;20116;-61
2022/02/17 03:03:12;;;;;;;4.93;2.30;;;;;;;;;;5093169;28;20048;-62
2022/02/17 03:05:39;;;;;;;5.07;2.72;;;;;;;;;;5093122;28;20103;-62
2022/02/17 03:08:06;;;;;;;7.65;2.63;;;;;;;;;;5093046;28;20016;-63
2022/02/17 03:10:34;;;;;;;6.70;2.40;;;;;;;;;;5093085;28;20044;-62
2022/02/17 03:13:00;;;;;;;5.07;2.58;;;;;;;;;;5092967;28;20024;-62
2022/02/17 03:15:27;;;;;;;4.53;2.42;;;;;;;;;;5093139;28;20034;-63
2022/02/17 03:17:53;;;;;;;4.60;2.22;;;;;;;;;;5092839;28;20020;-63
2022/02/17 03:20:20;;;;;;;4.60;2.47;;;;;;;;;;5092932;28;20047;-62
2022/02/17 03:22:46;;;;;;;4.60;2.25;;;;;;;;;;5092917;28;20593;-63
2022/02/17 03:25:14;;;;;;;4.10;2.28;;;;;;;;;;5085881;28;20146;-63
2022/02/17 03:27:40;;;;;;;4.97;2.50;;;;;;;;;;5071879;28;20032;-63
2022/02/17 03:30:07;;;;;;;6.93;2.63;;;;;;;;;;5072110;28;20020;-64
2022/02/17 03:32:37;;;;;;;4.90;1.92;;;;;;;;;;5072916;28;20107;-63
2022/02/17 03:35:07;;;;;;;6.07;2.13;;;;;;;;;;5072476;28;20092;-63
2022/02/17 03:37:33;;;;;;;3.22;1.63;;;;;;;;;;5072118;28;20017;-62
2022/02/17 03:40:00;;;;;;;6.05;2.15;;;;;;;;;;5072778;28;20032;-60
2022/02/17 03:42:26;;;;;;;4.63;2.33;;;;;;;;;;5072563;28;20077;-63
2022/02/17 03:44:52;;;;;;;5.60;1.98;;;;;;;;;;5072413;28;20031;-63
2022/02/17 03:47:18;;;;;;;4.88;2.22;;;;;;;;;;5072469;28;20103;-63
2022/02/17 03:49:44;;;;;;;7.43;1.67;;;;;;;;;;5072500;28;20395;-62
2022/02/17 03:52:10;;;;;;;4.55;2.00;;;;;;;;;;5072367;28;20013;-63
2022/02/17 03:54:36;;;;;;;3.75;1.80;;;;;;;;;;5072189;28;20028;-61
2022/02/17 03:57:03;;;;;;;3.22;1.83;;;;;;;;;;5071976;28;20408;-63
2022/02/17 03:59:29;;;;;;;4.28;1.80;;;;;;;;;;5071653;28;20036;-63
2022/02/17 04:01:56;;;;;;;4.20;1.98;;;;;;;;;;5072182;28;20017;-62
2022/02/17 04:04:22;;;;;;;4.28;1.83;;;;;;;;;;5071886;28;20128;-63
2022/02/17 04:06:48;;;;;;;3.13;1.77;;;;;;;;;;5071741;28;20017;-63
2022/02/17 04:09:14;;;;;;;4.00;1.73;;;;;;;;;;5053214;28;20031;-63
2022/02/17 04:11:40;;;;;;;3.30;1.70;;;;;;;;;;5071830;28;20021;-64
2022/02/17 04:14:06;;;;;;;5.50;2.30;;;;;;;;;;5071833;28;20111;-62
2022/02/17 04:16:32;;;;;;;3.42;1.70;;;;;;;;;;5071797;28;20020;-63
2022/02/17 04:18:58;;;;;;;3.65;1.85;;;;;;;;;;5071618;28;20032;-63
2022/02/17 04:21:24;;;;;;;4.20;2.03;;;;;;;;;;5071645;28;20016;-62
2022/02/17 04:23:51;;;;;;;3.42;1.70;;;;;;;;;;5071648;28;20032;-63
2022/02/17 04:26:18;;;;;;;3.58;1.75;;;;;;;;;;5071707;28;20020;-63
2022/02/17 04:28:45;;;;;;;5.05;1.92;;;;;;;;;;5071743;28;20069;-63
2022/02/17 04:31:11;;;;;;;3.38;1.77;;;;;;;;;;5071877;28;20017;-62
2022/02/17 04:33:39;;;;;;;4.38;1.65;;;;;;;;;;5071482;28;20368;-62
2022/02/17 04:36:05;;;;;;;3.20;1.60;;;;;;;;;;5071636;28;20032;-62
2022/02/17 04:38:31;;;;;;;3.60;1.75;;;;;;;;;;5071622;28;20068;-62
2022/02/17 04:43:43;;;;;;;4.20;1.88;;;;;;;;;;5071902;28;20090;-61
2022/02/17 04:46:09;;;;;;;4.72;1.95;;;;;;;;;;5071797;28;20090;-63
2022/02/17 04:48:36;;;;;;;3.13;1.65;;;;;;;;;;5071859;28;20024;-63
2022/02/17 04:51:02;;;;;;;4.20;1.80;;;;;;;;;;5071202;28;20104;-63
2022/02/17 04:53:28;;;;;;;4.05;1.95;;;;;;;;;;5071182;28;20078;-62
2022/02/17 04:55:55;;;;;;;3.35;1.40;;;;;;;;;;5071077;28;20074;-62
2022/02/17 04:58:23;;;;;;;3.85;1.60;;;;;;;;;;5071345;28;20033;-62
2022/02/17 05:00:49;;;;;;;4.35;2.03;;;;;;;;;;5071601;28;20157;-62
2022/02/17 05:03:16;;;;;;;4.15;1.70;;;;;;;;;;5071627;28;20044;-63
2022/02/17 05:05:42;;;;;;;3.55;1.58;;;;;;;;;;5071954;28;20021;-62
2022/02/17 05:08:08;;;;;;;3.55;1.67;;;;;;;;;;5071808;28;20024;-63
2022/02/17 05:10:35;;;;;;;3.25;1.58;;;;;;;;;;5071713;28;20016;-62
2022/02/17 05:13:01;;;;;;;3.38;1.60;;;;;;;;;;5071544;28;20125;-62
2022/02/17 05:15:27;;;;;;;4.65;2.35;;;;;;;;;;5071266;28;20096;-62
2022/02/17 05:17:54;;;;;;;3.72;1.90;;;;;;;;;;5071408;28;20114;-62
2022/02/17 05:20:20;;;;;;;3.05;1.52;;;;;;;;;;5074130;28;20063;-62
2022/02/17 05:22:46;;;;;;;3.67;1.77;;;;;;;;;;5074931;28;20028;-62
2022/02/17 05:25:13;;;;;;;4.28;1.58;;;;;;;;;;5059692;28;20733;-63
2022/02/17 05:27:40;;;;;;;4.93;1.75;;;;;;;;;;5095548;28;20024;-62
2022/02/17 05:30:07;;;;;;;3.83;1.80;;;;;;;;;;5094812;28;20074;-62
2022/02/17 05:32:33;;;;;;;3.65;1.65;;;;;;;;;;5095346;28;20028;-63
2022/02/17 05:34:59;;;;;;;4.70;2.15;;;;;;;;;;5095533;28;20035;-62
2022/02/17 05:37:25;;;;;;;3.92;1.85;;;;;;;;;;5095347;28;20020;-62
2022/02/17 05:39:51;;;;;;;3.97;1.77;;;;;;;;;;5095403;28;20028;-63
2022/02/17 05:42:17;;;;;;;4.25;2.13;;;;;;;;;;5095071;28;20020;-63
2022/02/17 05:44:43;;;;;;;4.05;2.20;;;;;;;;;;5095715;28;20443;-63
2022/02/17 05:47:10;;;;;;;3.85;1.73;;;;;;;;;;5095321;28;20016;-63
2022/02/17 05:49:36;;;;;;;4.22;1.88;;;;;;;;;;5095300;28;20027;-63
2022/02/17 05:52:02;;;;;;;5.43;1.70;;;;;;;;;;5095167;28;20697;-62
2022/02/17 05:54:28;;;;;;;3.72;1.80;;;;;;;;;;5095042;28;20028;-63
2022/02/17 05:56:54;;;;;;;3.55;1.63;;;;;;;;;;5095027;28;20016;-63
2022/02/17 05:59:20;;;;;;;5.45;2.20;;;;;;;;;;5094828;28;20024;-63
2022/02/17 06:01:46;;;;;;;4.90;1.90;;;;;;;;;;5094852;28;20028;-61
2022/02/17 06:04:12;;;;;;;3.97;1.88;;;;;;;;;;5094114;28;20048;-62
2022/02/17 06:06:38;;;;;;;4.28;1.88;;;;;;;;;;5094018;28;20103;-61
2022/02/17 06:09:05;;;;;;;2.97;1.60;;;;;;;;;;5094198;28;20027;-62
2022/02/17 06:11:31;;;;;;;4.38;2.00;;;;;;;;;;5094089;28;20081;-63
2022/02/17 06:13:57;;;;;;;3.58;1.60;;;;;;;;;;5094302;28;20030;-64
2022/02/17 06:16:23;;;;;;;4.38;1.92;;;;;;;;;;5094359;28;20051;-63
2022/02/17 06:18:49;;;;;;;3.35;1.50;;;;;;;;;;5094257;28;20032;-63
2022/02/17 06:21:16;;;;;;;5.22;1.70;;;;;;;;;;5094304;28;20020;-63
2022/02/17 06:23:42;;;;;;;3.58;1.60;;;;;;;;;;5094406;28;20044;-60
2022/02/17 06:26:08;;;;;;;4.35;2.00;;;;;;;;;;5094387;28;20486;-63
2022/02/17 06:28:34;;;;;;;3.53;1.38;;;;;;;;;;5094456;28;20031;-63
2022/02/17 06:31:00;;;;;;;3.63;1.85;;;;;;;;;;5093534;28;20020;-63
2022/02/17 06:33:27;;;;;;;3.88;1.95;;;;;;;;;;5094254;28;20032;-62
2022/02/17 06:35:53;;;;;;;3.50;1.80;;;;;;;;;;5094237;28;20013;-62
2022/02/17 06:38:19;;;;;;;3.97;1.48;;;;;;;;;;5094191;28;20471;-63
2022/02/17 06:40:45;;;;;;;3.25;1.65;;;;;;;;;;5094363;28;20035;-63
2022/02/17 06:43:13;;;;;;;4.10;1.80;;;;;;;;;;5093836;28;20031;-63
2022/02/17 06:45:40;;;;;;;3.22;1.60;;;;;;;;;;5093918;28;20012;-63
2022/02/17 06:48:07;;;;;;;3.63;1.73;;;;;;;;;;5093613;28;20020;-63
2022/02/17 06:50:34;;;;;;;3.22;1.45;;;;;;;;;;5093926;28;20620;-60
2022/02/17 06:53:00;;;;;;;4.93;1.95;;;;;;;;;;5093680;28;20020;-60
2022/02/17 06:55:26;;;;;;;3.60;1.77;;;;;;;;;;5093843;28;20024;-63
2022/02/17 06:57:53;;;;;;;5.38;2.00;;;;;;;;;;5093873;28;20035;-62
2022/02/17 07:00:19;;;;;;;3.05;1.63;;;;;;;;;;5093638;28;20082;-63
2022/02/17 07:02:55;;;;;;;4.13;2.17;;;;;;;;;;5093363;28;20036;-63
2022/02/17 07:05:22;;;;;;;3.67;1.70;;;;;;;;;;5093789;28;20039;-62
2022/02/17 07:07:48;;;;;;;3.33;1.73;;;;;;;;;;5093881;28;20073;-63
2022/02/17 07:10:54;;;;;;;3.50;1.52;;;;;;;;;;5093769;28;20052;-62
2022/02/17 07:13:01;;;;;;;4.20;1.67;;;;;;;;;;5093502;28;20544;-62
2022/02/17 07:15:28;;;;;;;4.20;1.65;;;;;;;;;;5093321;28;20024;-61
2022/02/17 07:17:54;;;;;;;5.13;2.03;;;;;;;;;;5093190;28;20028;-60
2022/02/17 07:20:21;;;;;;;4.72;1.70;;;;;;;;;;5093278;28;20031;-62
2022/02/17 07:22:47;;;;;;;5.13;2.08;;;;;;;;;;5093056;28;20027;-61
2022/02/17 07:25:13;;;;;;;3.42;1.63;;;;;;;;;;5091636;28;20026;-62
2022/02/17 07:27:39;;;;;;;3.00;1.50;;;;;;;;;;5073093;28;20549;-61
2022/02/17 07:30:05;;;;;;;3.80;1.77;;;;;;;;;;5072709;28;20306;-60
2022/02/17 07:32:31;;;;;;;3.90;1.70;;;;;;;;;;5072725;28;20020;-62
2022/02/17 07:34:57;;;;;;;4.85;1.85;;;;;;;;;;5072781;28;20033;-62
2022/02/17 07:37:23;;;;;;;2.83;1.40;;;;;;;;;;5072658;28;20070;-62
2022/02/17 07:39:49;;;;;;;6.28;1.58;;;;;;;;;;5072776;28;20029;-61
2022/02/17 07:42:16;;;;;;;5.38;1.42;;;;;;;;;;5072290;28;20028;-62
2022/02/17 07:44:42;;;;;;;2.58;1.17;;;;;;;;;;5072781;28;20031;-63
2022/02/17 07:47:08;;;;;;;3.88;1.38;;;;;;;;;;5072434;28;20535;-62
2022/02/17 07:49:34;;;;;;;2.75;1.27;;;;;;;;;;5072336;28;20099;-62
2022/02/17 07:52:00;;;;;;;3.10;1.48;;;;;;;;;;5054192;28;20441;-62
2022/02/17 07:54:27;;;;;;;2.35;1.08;;;;;;;;;;5072422;28;20028;-62
2022/02/17 07:56:53;;;;;;;3.28;1.30;;;;;;;;;;5072690;28;20092;-63
2022/02/17 07:59:19;;;;;;;3.65;1.40;;;;;;;;;;5072317;28;20475;-62
2022/02/17 08:01:45;;;;;;;3.40;1.27;;;;;;;;;;5072350;28;20028;-60
2022/02/17 08:04:11;;;;;;;5.15;1.75;;;;;;;;;;5072244;28;20131;-63
2022/02/17 08:06:38;;;;;;;3.63;1.60;;;;;;;;;;5071637;28;20492;-62
2022/02/17 08:09:04;;;;;;;2.80;1.30;;;;;;;;;;5072387;28;20017;-61
2022/02/17 08:11:30;;;;;;;4.00;1.30;;;;;;;;;;5071890;28;20020;-63
2022/02/17 08:13:57;;;;;;;3.35;1.40;;;;;;;;;;5071945;28;20024;-62
2022/02/17 08:16:25;;;;;;;3.40;1.30;;;;;;;;;;5072144;28;20032;-62
2022/02/17 08:18:52;;;;;;;3.72;1.60;;;;;;;;;;5071706;28;20043;-61
2022/02/17 08:21:18;;;;;;;3.95;1.42;;;;;;;;;;5071717;28;20109;-61
2022/02/17 08:23:44;;;;;;;2.90;1.42;;;;;;;;;;5071843;28;20021;-63
2022/02/17 08:26:10;;;;;;;4.85;1.88;;;;;;;;;;5072279;28;20026;-61
2022/02/17 08:28:36;;;;;;;2.97;1.42;;;;;;;;;;5073907;28;20474;-62
2022/02/17 08:31:03;;;;;;;5.88;1.83;;;;;;;;;;5071833;28;20017;-62
2022/02/17 08:33:29;;;;;;;2.50;1.13;;;;;;;;;;5085277;28;20085;-63
2022/02/17 08:35:55;;;;;;;3.17;1.50;;;;;;;;;;5092063;28;20027;-61
2022/02/17 08:38:29;;;;;;;2.85;1.25;;;;;;;;;;5091752;28;20047;-64
2022/02/17 08:40:55;;;;;;;2.65;1.35;;;;;;;;;;5091704;28;20563;-62
2022/02/17 08:43:21;;;;;;;2.60;1.20;;;;;;;;;;5091754;28;20063;-64
2022/02/17 08:45:47;;;;;;;3.28;1.38;;;;;;;;;;5077059;28;20016;-64
2022/02/17 08:48:13;;;;;;;3.60;1.55;;;;;;;;;;5071458;28;20024;-64
2022/02/17 08:50:40;;;;;;;3.13;1.30;;;;;;;;;;5071603;28;20032;-63
2022/02/17 08:53:07;;;;;;;220.65;8.95;;;;;;;;;;5071842;28;20100;-61
2022/02/17 08:55:33;;;;;;;5.80;1.80;;;;;;;;;;5085966;28;20514;-62
2022/02/17 08:57:59;;;;;;;7.03;1.83;;;;;;;;;;5095598;28;20027;-63
2022/02/17 09:00:25;;;;;;;6.30;1.80;;;;;;;;;;5095416;28;20031;-60
2022/02/17 09:02:51;;;;;;;11.60;1.60;;;;;;;;;;5095274;28;20069;-62
2022/02/17 09:05:17;;;;;;;10.48;1.77;;;;;;;;;;5078055;28;20497;-63
2022/02/17 09:07:43;;;;;;;4.15;1.45;;;;;;;;;;5096094;28;20475;-62
2022/02/17 09:10:09;;;;;;;6.38;1.65;;;;;;;;;;5096080;28;20027;-62
2022/02/17 09:12:37;;;;;;;4.32;1.60;;;;;;;;;;5095859;28;20051;-62
2022/02/17 09:15:04;;;;;;;42.58;3.47;;;;;;;;;;5095656;28;20086;-62
2022/02/17 09:17:30;;;;;;;24.98;2.15;;;;;;;;;;5095501;28;20016;-61
2022/02/17 09:19:56;;;;;;;34.47;2.67;;;;;;;;;;5095712;28;20509;-62
2022/02/17 09:22:22;;;;;;;17.98;1.88;;;;;;;;;;5094434;28;20408;-60
2022/02/17 09:24:49;;;;;;;15.90;1.75;;;;;;;;;;5086233;28;20103;-60
2022/02/17 09:27:15;;;;;;;12.68;1.48;;;;;;;;;;5075121;28;20021;-61
2022/02/17 09:29:42;;;;;;;10.82;1.90;;;;;;;;;;5087129;28;20491;-61
2022/02/17 09:32:09;;;;;;;8.07;1.73;;;;;;;;;;5095229;28;20024;-60
2022/02/17 09:34:37;;;;;;;7.72;1.83;;;;;;;;;;5094554;28;20032;-62
2022/02/17 09:37:03;;;;;;;84.80;4.65;;;;;;;;;;5074596;28;20094;-64
2022/02/17 09:39:29;;;;;;;37.38;2.58;;;;;;;;;;5074863;28;20079;-64
2022/02/17 09:41:56;;;;;;;51.70;2.72;;;;;;;;;;5075064;28;20027;-63
2022/02/17 09:44:22;;;;;;;25.60;1.75;;;;;;;;;;5074903;28;20028;-62
2022/02/17 09:46:48;;;;;;;32.03;2.95;;;;;;;;;;5074884;28;20028;-62
2022/02/17 09:49:18;;;;;;;14.57;1.95;;;;;;;;;;5074838;28;20023;-63
2022/02/17 09:51:45;;;;;;;15.40;1.38;;;;;;;;;;5074648;28;20020;-65
2022/02/17 09:54:11;;;;;;;8.25;1.50;;;;;;;;;;5074693;28;20024;-64
2022/02/17 09:56:38;;;;;;;19.35;1.90;;;;;;;;;;5056912;28;20427;-64
2022/02/17 09:59:04;;;;;;;6.53;1.40;;;;;;;;;;5074722;28;20487;-64
2022/02/17 10:01:31;;;;;;;23.23;2.53;;;;;;;;;;5074681;28;20020;-63
2022/02/17 10:04:15;;;;;;;12.93;1.35;;;;;;;;;;5056360;28;20044;-64
2022/02/17 10:06:43;;;;;;;14.85;1.80;;;;;;;;;;5074518;28;20025;-64
2022/02/17 10:09:09;;;;;;;3.60;1.50;;;;;;;;;;5074515;28;20029;-63
2022/02/17 10:11:36;;;;;;;5.57;1.38;;;;;;;;;;5074533;28;20426;-65
2022/02/17 10:14:04;;;;;;;15.40;1.48;;;;;;;;;;5074299;28;20074;-62
2022/02/17 10:16:30;;;;;;;3.08;1.27;;;;;;;;;;5074384;28;20058;-62
2022/02/17 10:19:09;;;;;;;3.92;1.30;;;;;;;;;;5074489;28;20032;-62
2022/02/17 10:21:35;;;;;;;5.28;1.60;;;;;;;;;;5074415;28;20021;-64
2022/02/17 10:24:01;;;;;;;3.42;1.00;;;;;;;;;;5074206;28;20020;-64
2022/02/17 10:26:30;;;;;;;4.15;1.02;;;;;;;;;;5074183;28;20100;-65
2022/02/17 10:28:59;;;;;;;2.90;1.00;;;;;;;;;;5074237;28;20020;-62
2022/02/17 10:31:27;;;;;;;3.53;1.50;;;;;;;;;;5074150;28;20024;-64
2022/02/17 10:33:54;;;;;;;3.72;1.27;;;;;;;;;;5074003;28;20025;-64
2022/02/17 10:36:34;;;;;;;4.18;1.50;;;;;;;;;;5074175;28;20020;-62
2022/02/17 10:39:09;;;;;;;3.88;1.15;;;;;;;;;;5073895;28;20025;-62
2022/02/17 10:41:52;;;;;;;2.95;1.33;;;;;;;;;;5073984;28;20070;-62
2022/02/17 10:44:20;;;;;;;2.35;1.05;;;;;;;;;;5073886;28;20020;-62
2022/02/17 10:46:46;;;;;;;2.50;1.20;;;;;;;;;;5073901;28;20028;-63
2022/02/17 10:49:13;;;;;;;2.83;1.15;;;;;;;;;;5073723;28;20104;-64
2022/02/17 10:51:39;;;;;;;1.98;0.93;;;;;;;;;;5055555;28;21110;-64
2022/02/17 10:54:08;;;;;;;3.38;1.02;;;;;;;;;;5074073;28;20349;-65
2022/02/17 10:56:36;;;;;;;2.70;1.23;;;;;;;;;;5055749;28;20047;-64
2022/02/17 10:59:03;;;;;;;3.90;1.30;;;;;;;;;;5073674;28;20391;-65
2022/02/17 11:01:30;;;;;;;7.20;1.20;;;;;;;;;;5073474;28;20387;-64
2022/02/17 11:03:56;;;;;;;2.42;1.17;;;;;;;;;;5073294;28;20123;-63
2022/02/17 11:06:22;;;;;;;3.90;1.13;;;;;;;;;;5072703;28;20028;-64
2022/02/17 11:08:49;;;;;;;2.35;1.08;;;;;;;;;;5072879;28;20044;-64
2022/02/17 11:11:15;;;;;;;2.90;1.10;;;;;;;;;;5073055;28;20021;-64
2022/02/17 11:13:45;;;;;;;2.45;1.08;;;;;;;;;;5073243;28;20024;-64
2022/02/17 11:16:15;;;;;;;4.22;1.00;;;;;;;;;;5072727;28;20380;-66
2022/02/17 11:18:41;;;;;;;2.53;1.05;;;;;;;;;;5072969;28;20043;-63
2022/02/17 11:21:14;;;;;;;2.88;1.00;;;;;;;;;;5073195;28;20028;-64
2022/02/17 11:23:41;;;;;;;3.55;0.88;;;;;;;;;;5055143;28;20342;-64
2022/02/17 11:26:22;;;;;;;3.00;1.00;;;;;;;;;;5073080;28;20051;-64
2022/02/17 11:28:48;;;;;;;3.05;1.40;;;;;;;;;;5072954;28;20028;-63
2022/02/17 11:31:14;;;;;;;2.72;1.25;;;;;;;;;;5073137;28;20017;-63
2022/02/17 11:33:41;;;;;;;3.35;1.20;;;;;;;;;;5072738;28;20031;-64
2022/02/17 11:36:21;;;;;;;2.67;1.10;;;;;;;;;;5072120;28;20051;-63
2022/02/17 11:38:50;;;;;;;2.65;0.93;;;;;;;;;;5072813;28;20044;-62
2022/02/17 11:41:16;;;;;;;2.90;1.08;;;;;;;;;;5072726;28;20048;-62
2022/02/17 11:43:44;;;;;;;2.25;0.90;;;;;;;;;;5072913;28;20383;-60
2022/02/17 11:46:10;;;;;;;4.38;1.10;;;;;;;;;;5072740;28;20027;-62
2022/02/17 11:48:38;;;;;;;3.85;1.08;;;;;;;;;;5072570;28;20032;-61
2022/02/17 11:51:11;;;;;;;3.03;1.10;;;;;;;;;;5072347;28;20012;-64
2022/02/17 11:53:38;;;;;;;2.70;1.10;;;;;;;;;;5072459;28;20097;-64
2022/02/17 11:56:07;;;;;;;3.67;0.88;;;;;;;;;;5072619;28;20020;-61
2022/02/17 11:58:43;;;;;;;2.63;1.10;;;;;;;;;;5072461;28;20082;-61
2022/02/17 12:01:25;;;;;;;2.70;0.90;;;;;;;;;;5072522;28;20017;-63
2022/02/17 12:04:09;;;;;;;2.50;1.10;;;;;;;;;;5072356;28;20048;-61
2022/02/17 12:06:46;;;;;;;2.60;1.02;;;;;;;;;;5072342;28;20025;-62
2022/02/17 12:11:57;;;;;;;2.80;1.05;;;;;;;;;;5072201;28;20398;-62
2022/02/17 12:14:23;;;;;;;2.35;1.05;;;;;;;;;;5072303;28;20023;-64
2022/02/17 12:17:02;;;;;;;2.65;1.10;;;;;;;;;;5084010;28;20115;-63
2022/02/17 12:19:28;;;;;;;2.47;1.00;;;;;;;;;;5071683;28;20048;-64
2022/02/17 12:22:05;;;;;;;2.92;1.00;;;;;;;;;;5080774;28;20107;-63
2022/02/17 12:24:31;;;;;;;2.88;1.20;;;;;;;;;;5092166;28;20035;-64
2022/02/17 12:26:58;;;;;;;2.42;1.00;;;;;;;;;;5092243;28;20028;-62
2022/02/17 12:29:26;;;;;;;4.13;0.98;;;;;;;;;;5091284;28;20482;-62
2022/02/17 12:31:53;;;;;;;1.80;0.80;;;;;;;;;;5092160;28;20069;-65
2022/02/17 12:34:19;;;;;;;2.45;0.90;;;;;;;;;;5063126;28;20079;-62
2022/02/17 12:36:45;;;;;;;2.15;1.05;;;;;;;;;;5071596;28;20021;-64
2022/02/17 12:39:11;;;;;;;2.45;0.90;;;;;;;;;;5071246;28;20036;-64
2022/02/17 12:41:38;;;;;;;2.70;1.20;;;;;;;;;;5073712;28;20024;-64
2022/02/17 12:44:07;;;;;;;2.75;1.10;;;;;;;;;;5092146;28;20028;-64
2022/02/17 12:46:33;;;;;;;4.18;1.30;;;;;;;;;;5092164;28;20109;-62
2022/02/17 12:49:07;;;;;;;4.53;1.10;;;;;;;;;;5092193;28;20082;-64
2022/02/17 12:51:34;;;;;;;5.30;1.10;;;;;;;;;;5092058;28;20066;-64
2022/02/17 12:54:00;;;;;;;2.85;1.00;;;;;;;;;;5084653;28;20024;-64
2022/02/17 12:56:28;;;;;;;5.20;1.33;;;;;;;;;;5076655;28;20072;-63
2022/02/17 12:59:02;;;;;;;2.58;0.90;;;;;;;;;;5072932;28;20036;-64
2022/02/17 13:01:28;;;;;;;4.07;1.33;;;;;;;;;;5091605;28;20020;-61
2022/02/17 13:03:55;;;;;;;2.33;0.90;;;;;;;;;;5091489;28;20052;-62
2022/02/17 13:06:25;;;;;;;1.92;0.88;;;;;;;;;;5091601;28;20100;-61
2022/02/17 13:08:52;;;;;;;7.18;1.38;;;;;;;;;;5091488;28;20516;-61
2022/02/17 13:11:20;;;;;;;3.95;1.50;;;;;;;;;;5087616;28;20021;-60
2022/02/17 13:13:46;;;;;;;2.20;1.00;;;;;;;;;;5071317;28;20021;-62
2022/02/17 13:16:17;;;;;;;2.40;1.17;;;;;;;;;;5071326;28;20069;-60
2022/02/17 13:18:43;;;;;;;3.85;1.05;;;;;;;;;;5071139;28;20475;-61
2022/02/17 13:21:14;;;;;;;2.60;0.93;;;;;;;;;;5071286;28;20040;-60
2022/02/17 13:23:40;;;;;;;2.78;1.05;;;;;;;;;;5071150;28;20035;-62
2022/02/17 13:26:25;;;;;;;5.63;1.23;;;;;;;;;;5071359;28;20046;-61
2022/02/17 13:28:51;;;;;;;11.32;1.02;;;;;;;;;;5071065;28;20024;-61
2022/02/17 13:31:21;;;;;;;2.40;1.10;;;;;;;;;;5071345;28;20016;-61
2022/02/17 13:33:48;;;;;;;2.53;0.95;;;;;;;;;;5071125;28;20028;-61
2022/02/17 13:36:24;;;;;;;3.33;1.30;;;;;;;;;;5071402;28;20375;-62
2022/02/17 13:39:03;;;;;;;2.78;1.10;;;;;;;;;;5071259;28;20182;-61
2022/02/17 13:41:29;;;;;;;2.55;1.00;;;;;;;;;;5074127;28;20081;-63
2022/02/17 13:43:57;;;;;;;6.85;1.33;;;;;;;;;;5074776;28;20040;-63
2022/02/17 13:46:23;;;;;;;2.97;1.30;;;;;;;;;;5056903;28;20400;-61
2022/02/17 13:48:49;;;;;;;2.58;1.02;;;;;;;;;;5086236;28;20102;-62
2022/02/17 13:51:19;;;;;;;2.08;1.00;;;;;;;;;;5094655;28;20024;-63
2022/02/17 13:53:46;;;;;;;2.70;1.20;;;;;;;;;;5095063;28;20016;-62
2022/02/17 13:56:16;;;;;;;3.80;1.00;;;;;;;;;;5083650;28;20025;-61
2022/02/17 13:58:42;;;;;;;3.83;1.10;;;;;;;;;;5073734;28;20056;-63
2022/02/17 14:01:08;;;;;;;2.58;1.20;;;;;;;;;;5075483;28;20345;-63
2022/02/17 14:03:38;;;;;;;3.83;1.40;;;;;;;;;;5056342;28;20048;-63
2022/02/17 14:06:18;;;;;;;3.83;1.25;;;;;;;;;;5074390;28;20055;-63
2022/02/17 14:08:44;;;;;;;3.03;1.13;;;;;;;;;;5074429;28;20395;-62
2022/02/17 14:11:11;;;;;;;2.78;0.80;;;;;;;;;;5056542;28;20016;-60
2022/02/17 14:13:37;;;;;;;4.20;1.10;;;;;;;;;;5056613;28;20040;-60
2022/02/17 14:16:04;;;;;;;5.30;1.25;;;;;;;;;;5074450;28;20060;-62
2022/02/17 14:18:30;;;;;;;2.92;1.08;;;;;;;;;;5074487;28;20020;-63
2022/02/17 14:20:57;;;;;;;2.58;0.90;;;;;;;;;;5074341;28;20506;-63
2022/02/17 14:23:23;;;;;;;2.97;1.02;;;;;;;;;;5074389;28;20067;-63
2022/02/17 14:25:49;;;;;;;2.05;0.90;;;;;;;;;;5074128;28;20073;-63
2022/02/17 14:28:15;;;;;;;2.45;0.80;;;;;;;;;;5074451;28;20020;-62
2022/02/17 14:30:46;;;;;;;2.88;0.95;;;;;;;;;;5074165;28;20084;-63
2022/02/17 14:33:16;;;;;;;3.20;0.90;;;;;;;;;;5074268;28;20420;-63
2022/02/17 14:35:42;;;;;;;2.55;0.90;;;;;;;;;;5074197;28;20534;-63
2022/02/17 14:38:09;;;;;;;3.22;0.98;;;;;;;;;;5073853;28;20081;-63
2022/02/17 14:40:37;;;;;;;1.52;0.77;;;;;;;;;;5074122;28;20025;-63
2022/02/17 14:43:06;;;;;;;2.33;0.80;;;;;;;;;;5073835;28;20024;-64
2022/02/17 14:45:32;;;;;;;2.92;1.02;;;;;;;;;;5073666;28;20476;-65
2022/02/17 14:47:58;;;;;;;3.35;0.98;;;;;;;;;;5077250;28;20056;-64